If you wish to contribute or participate in the discussions about articles you are invited to join SKYbrary as a registered user

 Actions

Sirri Island Airport

From SKYbrary Wiki

OIBS
Airport
ICAO: OIBS – IATA: SXI
Summary
Name Sirri Island Airport
Region Asia and Pacific
Territory Iran IR.gif
Location Sirri Island, Hormozgan
Serving Sirri Island
Elevation 13.106 m
43 ft
43 ft13.106 m
Coordinates 25° 54' 9.11" N, 54° 32' 45.33" E
Runways
Designator Length Width Surface ROPS
12/30 2544 m8,346.457 ft
53 m173.885 ft
ASP /


METAR
Observation OIBS 201100Z 24010KT CAVOK 36/27 Q1005
Station Sirri Island / Sirri
Date/Time 20 September 2019 11:00:00
Wind direction 240°
Wind speed 10 kts
Lowest cloud amount clouds and visibility OK
Temperature 36°C
Dew point 27°C
Humidity 60%
QNH 1005 hPa
Weather condition n/a

Sirri Island Airport is an airport located in Sirri Island, Iran.

Maps

Terrain

Loading map...

Airport Layout

Loading map...


Accidents & Serious Incidents at or in vicinity of OIBS

None on SKYbrary